createdAt,value
2022-09-17T00:00:27.731Z,42.58
2022-09-17T00:02:30.626Z,42.51
2022-09-17T00:04:34.312Z,42.47
2022-09-17T00:06:38.117Z,42.53
2022-09-17T00:08:42.279Z,42.44
2022-09-17T00:10:45.916Z,42.50
2022-09-17T00:12:50.129Z,42.52
2022-09-17T00:14:53.067Z,42.72
2022-09-17T00:16:58.802Z,42.50
2022-09-17T00:19:05.947Z,42.39
2022-09-17T00:21:09.402Z,42.46
2022-09-17T00:23:13.534Z,42.58
2022-09-17T00:25:16.562Z,42.48
2022-09-17T00:27:19.535Z,42.36
2022-09-17T00:29:23.750Z,42.41
2022-09-17T00:31:28.591Z,42.25
2022-09-17T00:33:31.532Z,42.61
2022-09-17T00:35:34.399Z,42.45
2022-09-17T00:37:37.142Z,42.58
2022-09-17T00:39:40.071Z,42.48
2022-09-17T00:41:43.653Z,42.96
2022-09-17T00:43:48.047Z,42.83
2022-09-17T00:45:53.972Z,42.69
2022-09-17T00:47:59.851Z,42.93
2022-09-17T00:50:06.825Z,42.71
2022-09-17T00:52:11.850Z,42.72
2022-09-17T00:54:15.048Z,43.01
2022-09-17T00:56:24.824Z,43.08
2022-09-17T00:58:30.702Z,43.12
2022-09-17T01:00:33.940Z,43.13
2022-09-17T01:02:38.637Z,43.04
2022-09-17T01:04:42.170Z,43.12
2022-09-17T01:06:56.843Z,43.16
2022-09-17T01:09:15.709Z,43.11
2022-09-17T01:11:42.313Z,43.01
2022-09-17T01:14:15.182Z,42.99
2022-09-17T01:16:25.749Z,42.67
2022-09-17T01:18:43.638Z,42.99
2022-09-17T01:21:27.920Z,43.03
2022-09-17T01:23:57.153Z,42.90
2022-09-17T01:26:19.730Z,42.92
2022-09-17T01:28:33.843Z,42.89
2022-09-17T01:31:00.310Z,42.81
2022-09-17T01:33:15.100Z,42.89
2022-09-17T01:35:25.692Z,42.70
2022-09-17T01:37:35.869Z,42.98
2022-09-17T01:39:48.400Z,42.97
2022-09-17T01:41:58.701Z,42.76
2022-09-17T01:44:07.432Z,43.06
2022-09-17T01:46:16.925Z,42.92
2022-09-17T01:48:28.150Z,43.06
2022-09-17T01:50:38.607Z,43.23
2022-09-17T01:52:45.095Z,43.13
2022-09-17T01:54:51.114Z,43.16
2022-09-17T01:57:01.714Z,43.27
2022-09-17T01:59:10.572Z,43.15
2022-09-17T02:01:19.833Z,43.09
2022-09-17T02:03:26.514Z,43.12
2022-09-17T02:05:35.348Z,43.10
2022-09-17T02:07:43.310Z,43.44
2022-09-17T02:09:51.979Z,43.43
2022-09-17T02:11:59.595Z,43.38
2022-09-17T02:14:07.700Z,43.18
2022-09-17T02:16:18.045Z,43.51
2022-09-17T02:18:28.385Z,43.34
2022-09-17T02:20:42.727Z,43.25
2022-09-17T02:22:51.344Z,42.90
2022-09-17T02:25:03.647Z,43.06
2022-09-17T02:27:13.319Z,42.85
2022-09-17T02:29:26.404Z,42.92
2022-09-17T02:31:30.623Z,42.88
2022-09-17T02:33:35.904Z,42.93
2022-09-17T02:35:39.036Z,42.77
2022-09-17T02:37:41.833Z,42.64
2022-09-17T02:39:44.862Z,42.74
2022-09-17T02:41:54.918Z,42.69
2022-09-17T02:44:07.252Z,42.83
2022-09-17T02:46:29.498Z,42.59
2022-09-17T02:49:05.615Z,42.62
2022-09-17T02:51:24.493Z,42.43
2022-09-17T02:53:38.198Z,42.48
2022-09-17T02:55:46.652Z,42.59
2022-09-17T02:58:01.275Z,42.48
2022-09-17T03:00:10.388Z,42.52
2022-09-17T03:02:20.031Z,42.48
2022-09-17T03:04:28.318Z,42.27
2022-09-17T03:06:31.523Z,42.47
2022-09-17T03:08:38.171Z,42.56
2022-09-17T03:10:41.239Z,42.06
2022-09-17T03:12:44.363Z,42.02
2022-09-17T03:14:47.115Z,42.07
2022-09-17T03:16:49.833Z,42.06
2022-09-17T03:18:52.535Z,42.06
2022-09-17T03:20:56.638Z,41.84
2022-09-17T03:22:59.602Z,42.11
2022-09-17T03:25:02.374Z,41.84
2022-09-17T03:27:05.623Z,41.78
2022-09-17T03:29:08.315Z,41.70
2022-09-17T03:31:11.040Z,41.77
2022-09-17T03:33:14.298Z,41.82
2022-09-17T03:35:19.468Z,41.87
2022-09-17T03:37:32.232Z,41.82
2022-09-17T03:39:36.597Z,41.68
2022-09-17T03:41:39.517Z,41.50
2022-09-17T03:43:42.226Z,41.68
2022-09-17T03:45:45.136Z,41.76
2022-09-17T03:47:47.975Z,41.76
2022-09-17T03:49:52.207Z,41.74
2022-09-17T03:51:55.296Z,41.70
2022-09-17T03:53:59.426Z,41.67
2022-09-17T03:56:03.747Z,41.72
2022-09-17T03:58:06.729Z,41.67
2022-09-17T04:00:12.444Z,41.64
2022-09-17T04:02:15.319Z,41.67
2022-09-17T04:04:18.137Z,41.54
2022-09-17T04:06:21.311Z,41.68
2022-09-17T04:08:24.430Z,41.53
2022-09-17T04:10:29.376Z,41.64
2022-09-17T04:12:32.276Z,41.66
2022-09-17T04:14:34.951Z,41.72
2022-09-17T04:16:37.660Z,41.69
2022-09-17T04:18:40.430Z,41.72
2022-09-17T04:20:43.110Z,41.82
2022-09-17T04:22:45.869Z,41.66
2022-09-17T04:24:48.744Z,41.75
2022-09-17T04:26:52.882Z,41.60
2022-09-17T04:28:55.712Z,41.79
2022-09-17T04:30:58.669Z,41.77
2022-09-17T04:33:01.438Z,41.79
2022-09-17T04:35:04.935Z,41.96
2022-09-17T04:37:07.813Z,41.94
2022-09-17T04:39:10.589Z,41.89
2022-09-17T04:41:13.331Z,41.84
2022-09-17T04:43:19.278Z,42.02
2022-09-17T04:45:22.394Z,41.90
2022-09-17T04:47:27.572Z,42.12
2022-09-17T04:49:31.066Z,42.19
2022-09-17T04:51:33.771Z,42.01
2022-09-17T04:53:37.027Z,41.95
2022-09-17T04:55:39.735Z,42.14
2022-09-17T04:57:47.230Z,42.05
2022-09-17T04:59:51.240Z,42.05
2022-09-17T05:01:54.092Z,42.13
2022-09-17T05:03:56.867Z,42.19
2022-09-17T05:05:59.885Z,42.25
2022-09-17T05:08:03.120Z,42.10
2022-09-17T05:10:07.178Z,42.17
2022-09-17T05:12:10.305Z,42.10
2022-09-17T05:14:14.057Z,42.11
2022-09-17T05:16:18.402Z,42.17
2022-09-17T05:18:21.289Z,41.97
2022-09-17T05:20:24.031Z,42.08
2022-09-17T05:22:28.490Z,41.94
2022-09-17T05:24:31.248Z,42.09
2022-09-17T05:26:34.108Z,42.05
2022-09-17T05:28:39.311Z,42.05
2022-09-17T05:30:42.846Z,41.98
2022-09-17T05:32:47.067Z,42.12
2022-09-17T05:34:50.141Z,42.23
2022-09-17T05:36:52.961Z,42.12
2022-09-17T05:38:55.872Z,41.95
2022-09-17T05:41:01.070Z,42.01
2022-09-17T05:43:06.832Z,42.02
2022-09-17T05:45:10.536Z,42.06
2022-09-17T05:47:13.460Z,41.97
2022-09-17T05:49:17.788Z,42.14
2022-09-17T05:51:20.654Z,41.98
2022-09-17T05:53:24.090Z,42.01
2022-09-17T05:55:27.795Z,42.01
2022-09-17T05:57:33.868Z,41.92
2022-09-17T05:59:36.694Z,42.07
2022-09-17T06:01:39.783Z,42.03
2022-09-17T06:03:42.860Z,42.04
2022-09-17T06:05:54.820Z,41.95
2022-09-17T06:07:57.583Z,42.15
2022-09-17T06:10:00.306Z,42.06
2022-09-17T06:12:03.738Z,42.15
2022-09-17T06:14:06.699Z,42.17
2022-09-17T06:16:09.680Z,42.14
2022-09-17T06:18:12.381Z,42.02
2022-09-17T06:20:16.246Z,42.13
2022-09-17T06:22:22.104Z,41.86
2022-09-17T06:24:24.878Z,42.15
2022-09-17T06:26:27.635Z,42.00
2022-09-17T06:28:31.085Z,42.03
2022-09-17T06:30:33.762Z,42.46
2022-09-17T06:32:36.494Z,42.40
2022-09-17T06:34:39.483Z,42.32
2022-09-17T06:36:42.257Z,42.43
2022-09-17T06:38:46.553Z,42.08
2022-09-17T06:40:51.751Z,42.14
2022-09-17T06:42:58.537Z,41.89
2022-09-17T06:45:08.004Z,42.08
2022-09-17T06:47:12.159Z,42.28
2022-09-17T06:49:17.637Z,42.38
2022-09-17T06:51:20.447Z,42.19
2022-09-17T06:53:24.071Z,42.13
2022-09-17T06:55:28.192Z,42.12
2022-09-17T06:57:31.146Z,42.18
2022-09-17T06:59:35.326Z,42.12
2022-09-17T07:01:38.032Z,42.04
2022-09-17T07:03:44.111Z,42.23
2022-09-17T07:05:46.961Z,42.18
2022-09-17T07:07:49.662Z,42.29
2022-09-17T07:09:54.152Z,42.30
2022-09-17T07:11:58.442Z,42.47
2022-09-17T07:14:01.144Z,42.38
2022-09-17T07:16:05.687Z,42.38
2022-09-17T07:18:10.010Z,42.65
2022-09-17T07:20:13.558Z,42.83
2022-09-17T07:22:16.503Z,42.67
2022-09-17T07:24:19.414Z,42.61
2022-09-17T07:26:22.331Z,42.39
2022-09-17T07:28:26.705Z,42.66
2022-09-17T07:30:29.849Z,42.74
2022-09-17T07:32:33.550Z,42.52
2022-09-17T07:34:38.297Z,42.61
2022-09-17T07:36:40.996Z,42.56
2022-09-17T07:38:43.846Z,42.59
2022-09-17T07:40:55.522Z,42.46
2022-09-17T07:42:59.502Z,42.39
2022-09-17T07:45:03.622Z,42.45
2022-09-17T07:47:06.427Z,42.24
2022-09-17T07:49:09.208Z,42.39
2022-09-17T07:51:16.790Z,42.18
2022-09-17T07:53:20.046Z,42.24
2022-09-17T07:55:23.978Z,42.02
2022-09-17T07:57:26.913Z,42.26
2022-09-17T07:59:29.614Z,42.36
2022-09-17T08:01:36.482Z,42.21
2022-09-17T08:03:40.941Z,42.00
2022-09-17T08:05:43.882Z,42.03
2022-09-17T08:07:52.573Z,42.08
2022-09-17T08:09:55.448Z,42.09
2022-09-17T08:11:59.395Z,42.03
2022-09-17T08:14:02.273Z,41.91
2022-09-17T08:16:07.481Z,41.85
2022-09-17T08:18:11.605Z,42.00
2022-09-17T08:20:18.488Z,41.91
2022-09-17T08:22:21.305Z,41.86
2022-09-17T08:24:23.977Z,41.70
2022-09-17T08:26:27.486Z,42.02
2022-09-17T08:28:32.072Z,42.11
2022-09-17T08:30:34.937Z,42.09
2022-09-17T08:32:37.645Z,41.99
2022-09-17T08:34:43.190Z,42.08
2022-09-17T08:36:45.944Z,41.95
2022-09-17T08:38:49.696Z,41.93
2022-09-17T08:41:01.804Z,41.96
2022-09-17T08:43:05.564Z,41.79
2022-09-17T08:45:19.015Z,41.67
2022-09-17T08:47:29.290Z,41.85
2022-09-17T08:49:36.126Z,41.63
2022-09-17T08:51:51.581Z,41.77
2022-09-17T08:54:06.185Z,41.64
2022-09-17T08:56:13.142Z,41.40
2022-09-17T08:58:36.150Z,41.23
2022-09-17T09:00:52.084Z,41.11
2022-09-17T09:03:20.072Z,40.92
2022-09-17T09:05:30.201Z,40.88
2022-09-17T09:07:39.743Z,40.78
2022-09-17T09:09:49.309Z,40.71
2022-09-17T09:12:02.859Z,40.76
2022-09-17T09:14:13.042Z,40.70
2022-09-17T09:16:18.925Z,40.66
2022-09-17T09:18:23.995Z,40.52
2022-09-17T09:20:33.243Z,40.49
2022-09-17T09:22:47.515Z,40.51
2022-09-17T09:25:03.486Z,40.38
2022-09-17T09:27:17.126Z,40.34
2022-09-17T09:29:30.416Z,40.48
2022-09-17T09:31:50.493Z,40.36
2022-09-17T09:33:53.945Z,40.26
2022-09-17T09:35:56.776Z,40.39
2022-09-17T09:38:08.158Z,40.47
2022-09-17T09:40:25.803Z,40.42
2022-09-17T09:42:31.786Z,40.32
2022-09-17T09:44:36.458Z,40.54
2022-09-17T09:47:04.331Z,40.33
2022-09-17T09:49:17.624Z,40.23
2022-09-17T09:51:30.565Z,40.04
2022-09-17T09:53:44.118Z,39.99
2022-09-17T09:56:05.835Z,40.01
2022-09-17T09:58:24.854Z,39.85
2022-09-17T10:00:30.470Z,39.87
2022-09-17T10:02:35.402Z,39.73
2022-09-17T10:04:38.333Z,39.75
2022-09-17T10:06:41.427Z,39.68
2022-09-17T10:09:13.409Z,39.66
2022-09-17T10:11:23.161Z,39.58
2022-09-17T10:13:26.988Z,39.60
2022-09-17T10:15:30.382Z,39.63
2022-09-17T10:17:33.247Z,39.82
2022-09-17T10:19:39.025Z,39.60
2022-09-17T10:21:45.538Z,39.41
2022-09-17T10:23:53.663Z,39.50
2022-09-17T10:25:57.594Z,39.44
2022-09-17T10:28:03.065Z,39.32
2022-09-17T10:30:21.239Z,39.48
2022-09-17T10:32:24.305Z,39.29
2022-09-17T10:34:32.264Z,39.29
2022-09-17T10:36:44.119Z,39.17
2022-09-17T10:38:47.611Z,38.96
2022-09-17T10:40:51.744Z,38.75
2022-09-17T10:43:33.276Z,38.91
2022-09-17T10:45:41.683Z,38.78
2022-09-17T10:47:45.386Z,38.82
2022-09-17T10:49:50.889Z,38.77
2022-09-17T10:51:53.875Z,38.65
2022-09-17T10:54:18.733Z,38.56
2022-09-17T10:56:29.468Z,38.54
2022-09-17T10:58:42.867Z,38.60
2022-09-17T11:00:56.810Z,38.69
2022-09-17T11:03:19.377Z,38.48
2022-09-17T11:05:40.011Z,38.45
2022-09-17T11:07:50.852Z,38.41
2022-09-17T11:09:57.558Z,38.31
2022-09-17T11:12:18.292Z,38.48
2022-09-17T11:14:39.190Z,38.35
2022-09-17T11:16:55.331Z,38.29
2022-09-17T11:19:07.409Z,38.27
2022-09-17T11:21:42.591Z,38.42
2022-09-17T11:24:15.335Z,38.32
2022-09-17T11:26:31.454Z,38.14
2022-09-17T11:28:46.374Z,38.10
2022-09-17T11:30:58.613Z,38.16
2022-09-17T11:33:18.145Z,38.21
2022-09-17T11:35:26.385Z,38.12
2022-09-17T11:37:36.098Z,37.97
2022-09-17T11:39:48.318Z,37.87
2022-09-17T11:41:53.967Z,37.81
2022-09-17T11:44:09.998Z,37.92
2022-09-17T11:46:23.777Z,37.83
2022-09-17T11:48:36.424Z,37.82
2022-09-17T11:50:50.372Z,37.69
2022-09-17T11:53:06.063Z,37.66
2022-09-17T11:55:21.835Z,37.54
2022-09-17T11:57:28.871Z,37.44
2022-09-17T11:59:40.792Z,37.57
2022-09-17T12:01:48.961Z,37.44
2022-09-17T12:03:59.311Z,37.27
2022-09-17T12:06:07.079Z,37.53
2022-09-17T12:08:14.851Z,37.39
2022-09-17T12:10:35.536Z,37.48
2022-09-17T12:12:50.175Z,37.20
2022-09-17T12:14:59.587Z,37.27
2022-09-17T12:17:05.584Z,36.99
2022-09-17T12:19:16.132Z,37.16
2022-09-17T12:21:23.384Z,37.04
2022-09-17T12:23:38.744Z,37.01
2022-09-17T12:25:50.860Z,37.02
2022-09-17T12:28:00.735Z,36.91
2022-09-17T12:30:22.950Z,36.79
2022-09-17T12:32:52.793Z,36.81
2022-09-17T12:35:02.392Z,36.65
2022-09-17T12:37:12.103Z,36.74
2022-09-17T12:39:42.244Z,36.60
2022-09-17T12:41:57.393Z,36.53
2022-09-17T12:44:14.631Z,36.43
2022-09-17T12:46:35.541Z,36.59
2022-09-17T12:48:59.415Z,36.57
2022-09-17T12:51:18.264Z,36.49
2022-09-17T12:53:29.509Z,36.61
2022-09-17T12:55:41.208Z,36.60
2022-09-17T12:57:56.431Z,36.56
2022-09-17T13:00:20.107Z,36.48
2022-09-17T13:02:30.225Z,36.70
2022-09-17T13:05:01.482Z,36.50
2022-09-17T13:07:39.199Z,36.79
2022-09-17T13:10:00.953Z,36.73
2022-09-17T13:12:30.156Z,36.68
2022-09-17T13:14:55.720Z,36.53
2022-09-17T13:17:06.565Z,36.44
2022-09-17T13:19:26.250Z,36.44
2022-09-17T13:21:35.490Z,36.78
2022-09-17T13:23:43.499Z,36.71
2022-09-17T13:25:53.582Z,36.57
2022-09-17T13:28:09.224Z,36.68
2022-09-17T13:30:13.252Z,36.69
2022-09-17T13:32:45.619Z,36.77
2022-09-17T13:36:54.785Z,36.88
2022-09-17T13:38:57.834Z,36.75
2022-09-17T13:41:19.430Z,36.84
2022-09-17T13:43:27.675Z,36.76
2022-09-17T13:45:32.081Z,36.77
2022-09-17T13:47:36.811Z,36.82
2022-09-17T13:49:46.750Z,36.91
2022-09-17T13:51:55.198Z,36.93
2022-09-17T13:53:59.371Z,36.95
2022-09-17T13:56:03.481Z,36.93
2022-09-17T13:58:09.633Z,37.03
2022-09-17T14:00:54.634Z,36.83
2022-09-17T14:03:37.155Z,36.74
2022-09-17T14:05:42.059Z,36.73
2022-09-17T14:07:49.019Z,36.94
2022-09-17T14:09:55.109Z,36.61
2022-09-17T14:11:58.202Z,36.53
2022-09-17T14:14:41.220Z,36.66
2022-09-17T14:16:50.248Z,36.87
2022-09-17T14:19:02.542Z,37.03
2022-09-17T14:21:16.310Z,37.01
2022-09-17T14:23:19.055Z,36.77
2022-09-17T14:25:27.783Z,36.82
2022-09-17T14:27:50.964Z,36.71
2022-09-17T14:30:06.132Z,36.70
2022-09-17T14:32:11.390Z,36.89
2022-09-17T14:34:22.213Z,36.86
2022-09-17T14:36:25.490Z,36.68
2022-09-17T14:38:33.801Z,36.80
2022-09-17T14:40:37.122Z,37.02
2022-09-17T14:42:40.128Z,36.84
2022-09-17T14:44:51.714Z,36.93
2022-09-17T14:47:02.429Z,36.74
2022-09-17T14:49:15.903Z,36.71
2022-09-17T14:51:26.478Z,36.96
2022-09-17T14:53:29.245Z,36.71
2022-09-17T14:55:33.031Z,36.58
2022-09-17T14:57:36.987Z,36.72
2022-09-17T14:59:48.447Z,36.51
2022-09-17T15:01:51.801Z,36.69
2022-09-17T15:04:21.088Z,36.54
2022-09-17T15:06:24.324Z,36.64
2022-09-17T15:08:30.255Z,36.69
2022-09-17T15:10:33.616Z,36.31
2022-09-17T15:12:36.841Z,36.69
2022-09-17T15:14:40.246Z,36.58
2022-09-17T15:16:49.470Z,36.52
2022-09-17T15:18:56.534Z,36.68
2022-09-17T15:21:04.663Z,36.62
2022-09-17T15:23:14.794Z,36.42
2022-09-17T15:25:23.780Z,36.54
2022-09-17T15:27:30.546Z,36.61
2022-09-17T15:29:36.866Z,36.59
2022-09-17T15:31:39.856Z,36.61
2022-09-17T15:33:42.774Z,36.47
2022-09-17T15:36:01.460Z,36.47
2022-09-17T15:38:23.220Z,36.43
2022-09-17T15:40:29.850Z,36.31
2022-09-17T15:42:32.773Z,36.37
2022-09-17T15:44:35.474Z,36.47
2022-09-17T15:46:38.279Z,36.37
2022-09-17T15:48:41.393Z,36.32
2022-09-17T15:50:53.022Z,36.28
2022-09-17T15:53:23.386Z,36.21
2022-09-17T15:55:37.447Z,36.13
2022-09-17T15:57:40.508Z,35.98
2022-09-17T15:59:43.458Z,35.99
2022-09-17T16:01:56.389Z,35.94
2022-09-17T16:04:19.489Z,35.81
2022-09-17T16:06:37.396Z,35.67
2022-09-17T16:08:42.426Z,35.61
2022-09-17T16:10:45.137Z,35.53
2022-09-17T16:12:50.646Z,35.54
2022-09-17T16:14:55.060Z,35.57
2022-09-17T16:16:59.524Z,35.48
2022-09-17T16:19:02.643Z,35.35
2022-09-17T16:21:05.792Z,35.51
2022-09-17T16:23:08.467Z,35.52
2022-09-17T16:25:13.187Z,35.35
2022-09-17T16:27:20.969Z,35.41
2022-09-17T16:29:23.728Z,35.49
2022-09-17T16:31:26.743Z,35.44
2022-09-17T16:33:29.598Z,35.39
2022-09-17T16:35:32.266Z,35.48
2022-09-17T16:37:35.014Z,35.64
2022-09-17T16:39:37.820Z,35.25
2022-09-17T16:41:41.877Z,35.31
2022-09-17T16:43:44.583Z,35.26
2022-09-17T16:45:59.507Z,35.27
2022-09-17T16:48:02.786Z,35.36
2022-09-17T16:50:07.558Z,35.22
2022-09-17T16:52:10.290Z,35.28
2022-09-17T16:54:12.966Z,35.29
2022-09-17T16:56:16.473Z,35.48
2022-09-17T16:58:20.671Z,35.39
2022-09-17T17:00:23.342Z,35.25
2022-09-17T17:02:26.266Z,35.16
2022-09-17T17:04:29.018Z,35.24
2022-09-17T17:06:31.589Z,35.17
2022-09-17T17:08:35.194Z,35.19
2022-09-17T17:10:39.693Z,35.17
2022-09-17T17:12:42.610Z,35.10
2022-09-17T17:14:50.019Z,35.17
2022-09-17T17:16:52.725Z,35.13
2022-09-17T17:18:55.567Z,35.22
2022-09-17T17:21:06.103Z,35.24
2022-09-17T17:23:08.830Z,35.19
2022-09-17T17:25:13.383Z,35.16
2022-09-17T17:27:16.114Z,35.09
2022-09-17T17:29:19.060Z,35.32
2022-09-17T17:31:23.392Z,35.52
2022-09-17T17:33:26.309Z,35.62
2022-09-17T17:35:29.257Z,35.56
2022-09-17T17:37:32.151Z,35.58
2022-09-17T17:39:36.925Z,35.81
2022-09-17T17:41:39.671Z,35.86
2022-09-17T17:43:42.903Z,35.91
2022-09-17T17:45:45.639Z,36.05
2022-09-17T17:47:49.881Z,35.88
2022-09-17T17:49:52.580Z,36.18
2022-09-17T17:51:55.341Z,36.18
2022-09-17T17:53:58.046Z,36.34
2022-09-17T17:56:02.228Z,36.38
2022-09-17T17:58:05.096Z,36.24
2022-09-17T18:00:12.284Z,36.28
2022-09-17T18:02:15.193Z,36.30
2022-09-17T18:04:21.634Z,36.61
2022-09-17T18:06:24.790Z,36.46
2022-09-17T18:08:27.975Z,36.38
2022-09-17T18:10:30.803Z,36.37
2022-09-17T18:12:33.504Z,36.39
2022-09-17T18:14:36.250Z,36.57
2022-09-17T18:16:39.510Z,36.56
2022-09-17T18:18:45.375Z,36.59
2022-09-17T18:20:51.065Z,36.72
2022-09-17T18:22:55.492Z,36.71
2022-09-17T18:24:58.194Z,36.90
2022-09-17T18:27:00.946Z,37.05
2022-09-17T18:29:07.777Z,37.03
2022-09-17T18:31:19.219Z,36.93
2022-09-17T18:33:24.434Z,37.32
2022-09-17T18:35:27.887Z,37.42
2022-09-17T18:37:32.166Z,37.45
2022-09-17T18:41:57.918Z,37.36
2022-09-17T18:44:01.396Z,37.63
2022-09-17T18:46:05.252Z,37.51
2022-09-17T18:48:08.012Z,37.83
2022-09-17T18:50:12.757Z,37.80
2022-09-17T18:52:16.735Z,37.99
2022-09-17T18:54:20.878Z,37.85
2022-09-17T18:56:26.660Z,38.09
2022-09-17T18:58:29.605Z,38.16
2022-09-17T19:00:32.556Z,38.10
2022-09-17T19:02:35.645Z,38.21
2022-09-17T19:04:38.731Z,38.07
2022-09-17T19:06:42.402Z,38.22
2022-09-17T19:08:46.369Z,38.29
2022-09-17T19:10:52.500Z,38.26
2022-09-17T19:12:56.703Z,38.36
2022-09-17T19:14:59.447Z,38.70
2022-09-17T19:17:02.499Z,38.67
2022-09-17T19:19:05.182Z,38.71
2022-09-17T19:21:09.442Z,38.56
2022-09-17T19:23:12.528Z,38.53
2022-09-17T19:25:15.518Z,38.83
2022-09-17T19:27:19.841Z,38.96
2022-09-17T19:29:22.689Z,39.10
2022-09-17T19:31:25.825Z,38.87
2022-09-17T19:33:28.650Z,38.78
2022-09-17T19:35:31.480Z,39.11
2022-09-17T19:37:34.251Z,39.09
2022-09-17T19:39:37.608Z,39.20
2022-09-17T19:41:40.311Z,38.82
2022-09-17T19:43:45.067Z,38.92
2022-09-17T19:45:47.998Z,38.99
2022-09-17T19:47:51.285Z,38.90
2022-09-17T19:49:53.972Z,39.17
2022-09-17T19:51:57.033Z,39.17
2022-09-17T19:53:59.888Z,39.11
2022-09-17T19:56:03.441Z,39.38
2022-09-17T19:58:06.340Z,39.24
2022-09-17T20:00:12.091Z,39.38
2022-09-17T20:02:14.944Z,39.11
2022-09-17T20:04:18.019Z,39.39
2022-09-17T20:06:23.256Z,39.20
2022-09-17T20:08:26.063Z,39.15
2022-09-17T20:10:29.946Z,39.12
2022-09-17T20:12:32.673Z,39.50
2022-09-17T20:14:35.392Z,39.16
2022-09-17T20:16:41.228Z,39.46
2022-09-17T20:18:44.766Z,39.48
2022-09-17T20:20:47.618Z,39.21
2022-09-17T20:22:52.473Z,39.29
2022-09-17T20:24:55.340Z,39.53
2022-09-17T20:26:58.102Z,39.43
2022-09-17T20:29:01.217Z,39.45
2022-09-17T20:31:05.875Z,39.49
2022-09-17T20:33:10.118Z,39.46
2022-09-17T20:35:14.015Z,39.30
2022-09-17T20:37:24.898Z,39.20
2022-09-17T20:39:39.403Z,39.47
2022-09-17T20:41:43.010Z,39.35
2022-09-17T20:43:47.533Z,39.42
2022-09-17T20:45:56.703Z,39.25
2022-09-17T20:47:59.391Z,39.39
2022-09-17T20:50:03.578Z,39.53
2022-09-17T20:52:06.915Z,39.36
2022-09-17T20:54:10.850Z,39.54
2022-09-17T20:56:15.488Z,39.31
2022-09-17T20:58:20.084Z,39.53
2022-09-17T21:00:26.032Z,39.41
2022-09-17T21:02:29.064Z,39.49
2022-09-17T21:04:31.860Z,39.59
2022-09-17T21:06:40.983Z,39.46
2022-09-17T21:08:44.059Z,39.71
2022-09-17T21:10:46.936Z,39.68
2022-09-17T21:12:50.074Z,39.58
2022-09-17T21:14:52.885Z,39.45
2022-09-17T21:16:55.783Z,39.48
2022-09-17T21:18:59.594Z,39.71
2022-09-17T21:21:03.383Z,39.45
2022-09-17T21:23:07.618Z,39.45
2022-09-17T21:25:10.671Z,39.49
2022-09-17T21:27:14.263Z,39.69
2022-09-17T21:29:17.142Z,39.69
2022-09-17T21:31:21.383Z,39.41
2022-09-17T21:33:24.208Z,39.42
2022-09-17T21:35:30.188Z,39.83
2022-09-17T21:37:33.230Z,39.49
2022-09-17T21:39:37.317Z,39.64
2022-09-17T21:41:42.500Z,39.48
2022-09-17T21:43:45.775Z,39.72
2022-09-17T21:45:58.434Z,39.69
2022-09-17T21:48:01.409Z,39.75
2022-09-17T21:50:04.326Z,39.50
2022-09-17T21:52:07.100Z,39.71
2022-09-17T21:54:11.375Z,39.76
2022-09-17T21:56:17.125Z,39.73
2022-09-17T21:58:19.867Z,39.72
2022-09-17T22:00:23.521Z,39.66
2022-09-17T22:02:27.150Z,39.67
2022-09-17T22:04:29.902Z,39.70
2022-09-17T22:06:33.090Z,39.90
2022-09-17T22:08:36.270Z,39.78
2022-09-17T22:10:39.049Z,39.83
2022-09-17T22:12:43.236Z,40.03
2022-09-17T22:14:46.015Z,39.79
2022-09-17T22:16:52.494Z,39.63
2022-09-17T22:18:55.208Z,39.57
2022-09-17T22:20:58.957Z,39.88
2022-09-17T22:23:01.699Z,39.92
2022-09-17T22:25:04.854Z,39.79
2022-09-17T22:27:07.567Z,39.87
2022-09-17T22:29:14.377Z,39.99
2022-09-17T22:31:18.374Z,40.10
2022-09-17T22:33:21.242Z,39.90
2022-09-17T22:35:24.095Z,39.99
2022-09-17T22:37:28.698Z,40.26
2022-09-17T22:39:31.366Z,40.03
2022-09-17T22:41:35.959Z,39.89
2022-09-17T22:43:38.652Z,39.97
2022-09-17T22:45:42.773Z,40.01
2022-09-17T22:47:45.566Z,39.95
2022-09-17T22:49:48.301Z,39.98
2022-09-17T22:51:50.969Z,40.18
2022-09-17T22:53:53.863Z,40.20
2022-09-17T22:55:56.957Z,40.42
2022-09-17T22:57:59.651Z,40.36
2022-09-17T23:00:02.905Z,40.47
2022-09-17T23:02:07.259Z,40.51
2022-09-17T23:04:10.375Z,40.22
2022-09-17T23:06:15.434Z,40.28
2022-09-17T23:08:18.175Z,40.52
2022-09-17T23:10:20.892Z,40.37
2022-09-17T23:12:23.671Z,40.42
2022-09-17T23:14:26.527Z,40.96
2022-09-17T23:16:30.141Z,40.62
2022-09-17T23:18:34.668Z,40.71
2022-09-17T23:20:37.528Z,40.75
2022-09-17T23:22:40.195Z,40.74
2022-09-17T23:24:42.998Z,40.77
2022-09-17T23:26:45.868Z,40.56
2022-09-17T23:28:48.766Z,40.90
2022-09-17T23:30:51.558Z,40.87
2022-09-17T23:32:55.106Z,40.75
2022-09-17T23:34:59.155Z,40.97
2022-09-17T23:37:01.851Z,40.94
2022-09-17T23:39:06.296Z,40.83
2022-09-17T23:41:14.687Z,40.91
2022-09-17T23:43:17.424Z,41.05
2022-09-17T23:45:20.124Z,40.99
2022-09-17T23:47:22.806Z,40.67
2022-09-17T23:49:25.476Z,40.77
2022-09-17T23:51:31.600Z,40.96
2022-09-17T23:53:35.643Z,41.07
2022-09-17T23:55:38.399Z,41.01
2022-09-17T23:57:41.116Z,40.95
2022-09-17T23:59:43.826Z,41.04
